Time;durP1;ratioP1;P1;durP2;ratioP2;P2;SDS_P1;SDS_P2;PMS_P1;PMS_P2;Temp;Humidity;BMP_temperature;BMP_pressure;BME280_temperature;BME280_humidity;BME280_pressure;Samples;Min_cycle;Max_cycle;Signal;HPM_P1;HPM_P2
2023/10/16 00:00:29;;;;;;;4.88;2.70;;;;;;;;;;5068278;28;20055;-77
2023/10/16 00:02:59;;;;;;;4.22;2.00;;;;;;;;;;5065288;28;20558;-77
2023/10/16 00:05:32;;;;;;;5.10;2.35;;;;;;;;;;5065276;28;20384;-77
2023/10/16 00:08:07;;;;;;;3.80;1.88;;;;;;;;;;5067308;28;20115;-77
2023/10/16 00:10:34;;;;;;;4.07;2.10;;;;;;;;;;5053529;28;20143;-77
2023/10/16 00:13:10;;;;;;;6.28;2.40;;;;;;;;;;5068058;28;20056;-77
2023/10/16 00:15:40;;;;;;;4.95;2.20;;;;;;;;;;5065937;28;20020;-77
2023/10/16 00:18:13;;;;;;;7.63;2.42;;;;;;;;;;5049319;28;20028;-77
2023/10/16 00:20:41;;;;;;;4.70;2.38;;;;;;;;;;5065541;28;20029;-77
2023/10/16 00:23:10;;;;;;;4.38;2.20;;;;;;;;;;5065970;28;20362;-77
2023/10/16 00:25:39;;;;;;;5.20;2.42;;;;;;;;;;5067705;28;20036;-77
2023/10/16 00:28:09;;;;;;;4.82;2.10;;;;;;;;;;5070859;28;20024;-77
2023/10/16 00:30:38;;;;;;;6.97;3.53;;;;;;;;;;5071400;28;20595;-77
2023/10/16 00:33:10;;;;;;;5.80;2.60;;;;;;;;;;5067732;28;21692;-77
2023/10/16 00:35:37;;;;;;;7.50;2.45;;;;;;;;;;5044151;28;20055;-77
2023/10/16 00:38:03;;;;;;;5.70;2.40;;;;;;;;;;5069559;28;20032;-77
2023/10/16 00:40:32;;;;;;;4.88;2.25;;;;;;;;;;5071259;28;20032;-77
2023/10/16 00:43:17;;;;;;;4.78;2.00;;;;;;;;;;5070142;28;20522;-77
2023/10/16 00:45:48;;;;;;;6.70;2.60;;;;;;;;;;5066379;28;20074;-77
2023/10/16 00:48:16;;;;;;;3.88;2.22;;;;;;;;;;5071299;28;20020;-77
2023/10/16 00:50:48;;;;;;;5.88;2.47;;;;;;;;;;5066111;28;20099;-75
2023/10/16 00:53:15;;;;;;;4.43;2.47;;;;;;;;;;5053017;28;20501;-76
2023/10/16 00:55:41;;;;;;;5.05;2.22;;;;;;;;;;5071226;28;20048;-75
2023/10/16 00:58:06;;;;;;;4.75;1.98;;;;;;;;;;5067989;28;20048;-75
2023/10/16 01:00:35;;;;;;;5.80;2.38;;;;;;;;;;5050514;28;20036;-75
2023/10/16 01:03:04;;;;;;;5.57;2.30;;;;;;;;;;5061841;28;20067;-75
2023/10/16 01:05:33;;;;;;;6.57;2.47;;;;;;;;;;5066258;28;20027;-75
2023/10/16 01:08:02;;;;;;;5.60;2.63;;;;;;;;;;5063591;28;20458;-75
2023/10/16 01:10:32;;;;;;;4.38;2.33;;;;;;;;;;5044386;28;20564;-77
2023/10/16 01:12:58;;;;;;;4.85;2.58;;;;;;;;;;5052863;28;20031;-75
2023/10/16 01:15:24;;;;;;;4.82;2.60;;;;;;;;;;5061256;28;20080;-77
2023/10/16 01:17:50;;;;;;;4.72;2.30;;;;;;;;;;5066294;28;20029;-77
2023/10/16 01:20:18;;;;;;;4.40;2.30;;;;;;;;;;5049592;28;20029;-77
2023/10/16 01:22:52;;;;;;;5.82;2.58;;;;;;;;;;5072469;28;20120;-77
2023/10/16 01:25:18;;;;;;;6.40;2.38;;;;;;;;;;5066426;28;20082;-77
2023/10/16 01:27:43;;;;;;;3.30;2.00;;;;;;;;;;5062212;28;20423;-77
2023/10/16 01:30:09;;;;;;;6.20;2.65;;;;;;;;;;5048526;28;20103;-77
2023/10/16 01:32:35;;;;;;;5.95;2.30;;;;;;;;;;5070273;28;20036;-77
2023/10/16 01:35:01;;;;;;;5.10;2.30;;;;;;;;;;5050826;28;20094;-77
2023/10/16 01:37:27;;;;;;;5.70;2.20;;;;;;;;;;5073062;28;20033;-77
2023/10/16 01:39:56;;;;;;;3.55;2.20;;;;;;;;;;5068954;28;20020;-77
2023/10/16 01:42:22;;;;;;;6.22;2.20;;;;;;;;;;5068843;28;20028;-77
2023/10/16 01:44:51;;;;;;;4.55;2.13;;;;;;;;;;5069023;28;20484;-77
2023/10/16 01:47:16;;;;;;;5.68;1.98;;;;;;;;;;5051044;28;20025;-77
2023/10/16 01:49:43;;;;;;;4.35;2.15;;;;;;;;;;5068879;28;20430;-77
2023/10/16 01:52:11;;;;;;;6.40;2.30;;;;;;;;;;5071563;28;20471;-77
2023/10/16 01:54:41;;;;;;;4.80;2.22;;;;;;;;;;5067652;28;20023;-77
2023/10/16 01:57:12;;;;;;;5.80;2.30;;;;;;;;;;5053257;28;20422;-77
2023/10/16 01:59:42;;;;;;;6.30;2.40;;;;;;;;;;5044845;28;20077;-77
2023/10/16 02:02:09;;;;;;;3.92;1.88;;;;;;;;;;5067300;28;20032;-82
2023/10/16 02:04:36;;;;;;;4.40;2.28;;;;;;;;;;5069759;28;20450;-82
2023/10/16 02:07:01;;;;;;;4.60;2.20;;;;;;;;;;5069126;28;20475;-82
2023/10/16 02:09:31;;;;;;;4.53;2.47;;;;;;;;;;5058094;28;20029;-82
2023/10/16 02:11:59;;;;;;;4.72;2.22;;;;;;;;;;5059543;28;20029;-82
2023/10/16 02:14:24;;;;;;;5.65;2.33;;;;;;;;;;5060963;28;20289;-82
2023/10/16 02:16:51;;;;;;;4.75;2.20;;;;;;;;;;5060521;28;20148;-80
2023/10/16 02:19:17;;;;;;;4.28;2.00;;;;;;;;;;5063168;28;20025;-83
2023/10/16 02:21:42;;;;;;;3.67;2.15;;;;;;;;;;5061265;28;20039;-82
2023/10/16 02:24:08;;;;;;;5.28;2.25;;;;;;;;;;5063504;28;20085;-81
2023/10/16 02:26:53;;;;;;;6.95;2.28;;;;;;;;;;5059234;28;20400;-79
2023/10/16 02:29:18;;;;;;;4.40;2.40;;;;;;;;;;5058666;28;20039;-78
2023/10/16 02:31:44;;;;;;;4.28;2.05;;;;;;;;;;5067488;28;20028;-82
2023/10/16 02:34:15;;;;;;;5.68;2.15;;;;;;;;;;5057090;28;20024;-82
2023/10/16 02:36:40;;;;;;;4.88;2.15;;;;;;;;;;5070630;28;20029;-82
2023/10/16 02:39:08;;;;;;;5.72;2.20;;;;;;;;;;5067486;28;20473;-78
2023/10/16 02:41:34;;;;;;;6.45;2.50;;;;;;;;;;5065407;28;20025;-82
2023/10/16 02:43:59;;;;;;;3.53;2.05;;;;;;;;;;5059274;28;20056;-74
2023/10/16 02:46:25;;;;;;;5.25;2.33;;;;;;;;;;5068544;28;20436;-75
2023/10/16 02:48:53;;;;;;;3.75;2.30;;;;;;;;;;5047123;28;20035;-75
2023/10/16 02:51:18;;;;;;;5.78;2.35;;;;;;;;;;5066781;28;20114;-74
2023/10/16 02:53:45;;;;;;;3.85;2.40;;;;;;;;;;5051769;28;20487;-74
2023/10/16 02:56:17;;;;;;;4.97;2.55;;;;;;;;;;5053030;28;20183;-75
2023/10/16 02:58:43;;;;;;;4.32;2.17;;;;;;;;;;5065943;28;20036;-74
2023/10/16 03:01:18;;;;;;;5.80;2.40;;;;;;;;;;5047832;28;20028;-74
2023/10/16 03:03:45;;;;;;;4.55;2.28;;;;;;;;;;5064812;28;20032;-74
2023/10/16 03:06:11;;;;;;;5.15;2.10;;;;;;;;;;5060501;28;20039;-74
2023/10/16 03:08:37;;;;;;;4.53;2.50;;;;;;;;;;5060010;28;20029;-75
2023/10/16 03:11:06;;;;;;;5.55;2.42;;;;;;;;;;5060001;28;20024;-77
2023/10/16 03:13:35;;;;;;;4.78;2.30;;;;;;;;;;5059021;28;20028;-77
2023/10/16 03:16:26;;;;;;;4.72;2.45;;;;;;;;;;5059330;28;20024;-77
2023/10/16 03:19:02;;;;;;;5.88;2.50;;;;;;;;;;5055233;28;20028;-77
2023/10/16 03:21:28;;;;;;;5.32;2.45;;;;;;;;;;5058770;28;20706;-77
2023/10/16 03:23:54;;;;;;;4.55;2.58;;;;;;;;;;5068525;28;20024;-77
2023/10/16 03:26:30;;;;;;;9.00;2.83;;;;;;;;;;5065590;28;20020;-77
2023/10/16 03:28:56;;;;;;;5.15;2.30;;;;;;;;;;5066407;28;20029;-77
2023/10/16 03:31:23;;;;;;;4.20;2.20;;;;;;;;;;5061087;28;20066;-77
2023/10/16 03:33:49;;;;;;;4.53;2.03;;;;;;;;;;5062844;28;20016;-77
2023/10/16 03:36:15;;;;;;;4.32;2.30;;;;;;;;;;5045674;28;20040;-77
2023/10/16 03:38:41;;;;;;;4.45;2.30;;;;;;;;;;5061507;28;20042;-77
2023/10/16 03:43:48;;;;;;;3.97;1.90;;;;;;;;;;5062303;28;20039;-77
2023/10/16 03:46:13;;;;;;;4.20;2.00;;;;;;;;;;5048782;28;20025;-77
2023/10/16 03:48:40;;;;;;;5.35;2.28;;;;;;;;;;5066236;28;20074;-77
2023/10/16 03:51:06;;;;;;;3.85;2.15;;;;;;;;;;5052521;28;20553;-77
2023/10/16 03:53:32;;;;;;;4.85;2.35;;;;;;;;;;5052131;28;20039;-77
2023/10/16 03:55:58;;;;;;;4.90;2.47;;;;;;;;;;5055924;28;20478;-77
2023/10/16 03:58:26;;;;;;;5.55;2.35;;;;;;;;;;5045159;28;20124;-77
2023/10/16 04:00:58;;;;;;;3.30;2.00;;;;;;;;;;5051778;28;20407;-77
2023/10/16 04:03:26;;;;;;;5.45;2.25;;;;;;;;;;5063447;28;20020;-77
2023/10/16 04:05:53;;;;;;;4.30;2.20;;;;;;;;;;5064475;28;20033;-77
2023/10/16 04:08:21;;;;;;;3.42;1.95;;;;;;;;;;5064053;28;20063;-77
2023/10/16 04:10:47;;;;;;;4.05;2.15;;;;;;;;;;5064953;28;20023;-77
2023/10/16 04:13:18;;;;;;;5.00;2.30;;;;;;;;;;5073091;28;20032;-77
2023/10/16 04:18:30;;;;;;;5.68;2.30;;;;;;;;;;5069390;28;20380;-77
2023/10/16 04:26:33;;;;;;;4.43;2.35;;;;;;;;;;5064423;28;20535;-79
2023/10/16 04:34:31;;;;;;;5.22;2.50;;;;;;;;;;5069398;28;20124;-82
2023/10/16 04:47:42;;;;;;;5.20;3.00;;;;;;;;;;5071901;28;20469;-81
2023/10/16 04:50:09;;;;;;;5.65;2.35;;;;;;;;;;5050561;28;20059;-82
2023/10/16 05:03:44;;;;;;;5.38;2.15;;;;;;;;;;5061645;28;20416;-82
2023/10/16 05:14:22;;;;;;;4.88;2.42;;;;;;;;;;5065010;28;20531;-82
2023/10/16 05:16:53;;;;;;;4.55;2.47;;;;;;;;;;5063227;28;20396;-79
2023/10/16 06:16:22;;;;;;;4.65;2.70;;;;;;;;;;5065541;28;20085;-77
2023/10/16 06:18:48;;;;;;;6.85;3.00;;;;;;;;;;5067514;28;20028;-77
2023/10/16 06:21:14;;;;;;;5.00;2.95;;;;;;;;;;5052760;28;20400;-77
2023/10/16 06:23:48;;;;;;;4.97;2.78;;;;;;;;;;5056565;28;20526;-77
2023/10/16 06:26:16;;;;;;;6.50;2.80;;;;;;;;;;5051094;28;20499;-77
2023/10/16 06:28:52;;;;;;;5.00;2.60;;;;;;;;;;5065231;28;20060;-78
2023/10/16 06:31:24;;;;;;;5.75;2.90;;;;;;;;;;5068430;28;20108;-77
2023/10/16 06:33:54;;;;;;;5.80;2.88;;;;;;;;;;5064802;28;20054;-77
2023/10/16 06:36:24;;;;;;;5.68;2.85;;;;;;;;;;5060197;28;20037;-78
2023/10/16 06:38:52;;;;;;;6.78;3.10;;;;;;;;;;5050595;28;20060;-77
2023/10/16 06:41:22;;;;;;;6.40;3.40;;;;;;;;;;5063607;28;20419;-75
2023/10/16 06:43:48;;;;;;;6.03;3.13;;;;;;;;;;5062218;28;20032;-75
2023/10/16 06:46:24;;;;;;;6.03;3.28;;;;;;;;;;5064186;28;20020;-75
2023/10/16 06:48:51;;;;;;;5.55;2.78;;;;;;;;;;5046377;28;20020;-75
2023/10/16 06:51:18;;;;;;;4.88;3.03;;;;;;;;;;5048996;28;20070;-75
2023/10/16 06:53:44;;;;;;;6.85;3.10;;;;;;;;;;5065561;28;20384;-75
2023/10/16 06:56:14;;;;;;;5.72;3.05;;;;;;;;;;5042312;28;20522;-76
2023/10/16 06:58:40;;;;;;;5.07;3.20;;;;;;;;;;5060394;28;20028;-76
2023/10/16 07:01:06;;;;;;;7.10;3.58;;;;;;;;;;5061431;28;20485;-75
2023/10/16 07:03:33;;;;;;;5.32;3.15;;;;;;;;;;5066426;28;20543;-75
2023/10/16 07:05:59;;;;;;;5.90;3.38;;;;;;;;;;5060405;28;20469;-75
2023/10/16 07:08:24;;;;;;;5.43;3.10;;;;;;;;;;5067280;28;20025;-76
2023/10/16 07:10:56;;;;;;;10.43;3.83;;;;;;;;;;5074677;28;20067;-75
2023/10/16 07:13:29;;;;;;;6.47;3.63;;;;;;;;;;5052645;28;20025;-75
2023/10/16 07:15:59;;;;;;;;;;;;;;;;;;5068496;28;20540;-75
2023/10/16 07:18:25;;;;;;;6.88;3.80;;;;;;;;;;5054509;28;20005;-76
2023/10/16 07:23:24;;;;;;;5.57;3.38;;;;;;;;;;5068403;28;20523;-76
2023/10/16 07:25:57;;;;;;;6.15;3.70;;;;;;;;;;5052991;28;20543;-75
2023/10/16 07:28:24;;;;;;;8.18;3.50;;;;;;;;;;5050831;28;20028;-76
2023/10/16 07:30:50;;;;;;;6.03;3.28;;;;;;;;;;5069531;28;20025;-76
2023/10/16 07:33:15;;;;;;;6.15;4.05;;;;;;;;;;5060853;28;20024;-79
2023/10/16 07:35:45;;;;;;;6.97;4.05;;;;;;;;;;5054056;28;20025;-76
2023/10/16 07:38:24;;;;;;;9.25;3.92;;;;;;;;;;5040308;28;20029;-77
2023/10/16 07:40:54;;;;;;;8.05;4.20;;;;;;;;;;5066449;28;20029;-76
2023/10/16 07:43:27;;;;;;;8.63;4.07;;;;;;;;;;5047721;28;20441;-76
2023/10/16 07:48:37;;;;;;;8.68;5.70;;;;;;;;;;5067427;28;20557;-76
2023/10/16 07:51:06;;;;;;;7.70;5.10;;;;;;;;;;5063535;28;20037;-78
2023/10/16 07:53:35;;;;;;;10.07;4.50;;;;;;;;;;5070866;28;20024;-78
2023/10/16 07:56:02;;;;;;;8.75;4.45;;;;;;;;;;5064099;28;20036;-78
2023/10/16 07:58:33;;;;;;;8.77;4.57;;;;;;;;;;5062327;28;20697;-78
2023/10/16 08:03:36;;;;;;;8.40;4.90;;;;;;;;;;5062750;28;20086;-78
2023/10/16 08:06:05;;;;;;;9.52;5.70;;;;;;;;;;5058469;28;20075;-78
2023/10/16 08:08:36;;;;;;;7.32;4.63;;;;;;;;;;5059740;28;20017;-78
2023/10/16 08:11:12;;;;;;;9.07;5.10;;;;;;;;;;5060784;28;20464;-78
2023/10/16 08:13:48;;;;;;;9.32;6.55;;;;;;;;;;5051400;28;20036;-78
2023/10/16 08:16:18;;;;;;;12.40;6.50;;;;;;;;;;5055574;28;20533;-78
2023/10/16 08:18:50;;;;;;;11.63;7.25;;;;;;;;;;5058387;28;20048;-78
2023/10/16 08:21:24;;;;;;;8.48;5.00;;;;;;;;;;5056216;28;20078;-77
2023/10/16 08:23:53;;;;;;;9.48;5.38;;;;;;;;;;5060248;28;20120;-77
2023/10/16 08:26:28;;;;;;;8.13;4.82;;;;;;;;;;5059831;28;20086;-78
2023/10/16 08:31:43;;;;;;;9.43;5.25;;;;;;;;;;5059287;28;20044;-78
2023/10/16 08:34:10;;;;;;;6.75;5.20;;;;;;;;;;5039190;28;20048;-78
2023/10/16 08:36:35;;;;;;;11.70;6.95;;;;;;;;;;5064216;28;20028;-77
2023/10/16 08:39:10;;;;;;;8.95;5.72;;;;;;;;;;5061867;28;20565;-77
2023/10/16 08:41:42;;;;;;;7.65;4.45;;;;;;;;;;5062733;28;20075;-78
2023/10/16 08:44:15;;;;;;;7.07;5.00;;;;;;;;;;5043217;28;20135;-77
2023/10/16 08:49:22;;;;;;;6.35;4.15;;;;;;;;;;5060492;28;20035;-77
2023/10/16 08:51:55;;;;;;;6.25;3.88;;;;;;;;;;5061699;28;20056;-78
2023/10/16 08:57:08;;;;;;;7.45;4.35;;;;;;;;;;5062173;28;20112;-78
2023/10/16 08:59:35;;;;;;;9.10;4.68;;;;;;;;;;5045659;28;20484;-77
2023/10/16 09:02:05;;;;;;;9.25;5.53;;;;;;;;;;5056927;28;20028;-80
2023/10/16 09:04:30;;;;;;;6.50;4.43;;;;;;;;;;5059805;28;20035;-83
2023/10/16 09:06:56;;;;;;;7.50;4.20;;;;;;;;;;5057496;28;20036;-83
2023/10/16 09:09:25;;;;;;;6.82;4.25;;;;;;;;;;5061849;28;20377;-84
2023/10/16 09:11:52;;;;;;;6.07;4.00;;;;;;;;;;5044131;28;20026;-83
2023/10/16 09:14:17;;;;;;;6.60;3.80;;;;;;;;;;5058258;28;20033;-81
2023/10/16 09:16:51;;;;;;;8.73;3.88;;;;;;;;;;5036052;28;20416;-81
2023/10/16 09:19:18;;;;;;;10.07;4.40;;;;;;;;;;5063870;28;20123;-80
2023/10/16 09:21:44;;;;;;;6.85;3.97;;;;;;;;;;5059450;28;20039;-82
2023/10/16 09:24:12;;;;;;;7.80;3.58;;;;;;;;;;5036646;28;20028;-83
2023/10/16 09:26:44;;;;;;;10.02;4.97;;;;;;;;;;5044225;28;20104;-82
2023/10/16 09:29:14;;;;;;;9.63;4.00;;;;;;;;;;5041502;28;20203;-80
2023/10/16 09:31:46;;;;;;;8.60;3.70;;;;;;;;;;5047919;28;20064;-80
2023/10/16 09:34:19;;;;;;;6.38;3.63;;;;;;;;;;5044590;28;20337;-79
2023/10/16 09:39:48;;;;;;;6.68;3.33;;;;;;;;;;5049027;28;20197;-82
2023/10/16 09:42:14;;;;;;;8.20;3.47;;;;;;;;;;5051436;28;20121;-82
2023/10/16 09:44:56;;;;;;;8.10;3.70;;;;;;;;;;5036860;28;20035;-83
2023/10/16 09:47:27;;;;;;;7.80;3.60;;;;;;;;;;5031286;28;20757;-82
2023/10/16 09:49:59;;;;;;;6.90;3.47;;;;;;;;;;5038616;28;20027;-82
2023/10/16 09:52:31;;;;;;;8.95;4.07;;;;;;;;;;5063246;28;20093;-82
2023/10/16 09:54:59;;;;;;;6.60;3.60;;;;;;;;;;5054300;28;20067;-79
2023/10/16 09:57:30;;;;;;;8.73;4.30;;;;;;;;;;5044081;28;20115;-82
2023/10/16 10:00:03;;;;;;;6.72;3.90;;;;;;;;;;5060846;28;20461;-80
2023/10/16 10:02:35;;;;;;;6.00;3.90;;;;;;;;;;5041090;28;20488;-81
2023/10/16 10:05:09;;;;;;;5.63;3.55;;;;;;;;;;5048377;28;20036;-83
2023/10/16 10:07:38;;;;;;;6.65;4.00;;;;;;;;;;5053240;28;20055;-82
2023/10/16 10:13:08;;;;;;;6.40;3.15;;;;;;;;;;5038332;28;20043;-78
2023/10/16 10:15:36;;;;;;;5.20;2.63;;;;;;;;;;5054107;28;20476;-78
2023/10/16 10:18:31;;;;;;;7.00;2.53;;;;;;;;;;5034243;28;20664;-78
2023/10/16 10:21:02;;;;;;;5.82;2.40;;;;;;;;;;5049648;28;20461;-79
2023/10/16 10:23:32;;;;;;;5.03;2.65;;;;;;;;;;5054884;28;20556;-83
2023/10/16 10:26:01;;;;;;;6.55;2.60;;;;;;;;;;5039827;28;20500;-82
2023/10/16 10:28:32;;;;;;;5.18;2.25;;;;;;;;;;5057535;28;20016;-81
2023/10/16 10:31:04;;;;;;;5.50;2.20;;;;;;;;;;5049989;28;20540;-82
2023/10/16 10:33:42;;;;;;;4.67;2.60;;;;;;;;;;5044956;28;20167;-82
2023/10/16 10:36:27;;;;;;;4.95;2.10;;;;;;;;;;5051896;28;20037;-79
2023/10/16 10:42:03;;;;;;;2.95;1.60;;;;;;;;;;5053006;28;20460;-83
2023/10/16 10:44:46;;;;;;;3.25;1.63;;;;;;;;;;5061618;28;20031;-83
2023/10/16 10:47:24;;;;;;;5.65;2.00;;;;;;;;;;5059928;28;20473;-83
2023/10/16 10:49:51;;;;;;;4.65;2.17;;;;;;;;;;5044823;28;20511;-83
2023/10/16 10:52:19;;;;;;;4.25;1.77;;;;;;;;;;5060477;28;20555;-82
2023/10/16 10:54:48;;;;;;;5.13;2.78;;;;;;;;;;5065446;28;20032;-77
2023/10/16 10:57:18;;;;;;;4.78;2.72;;;;;;;;;;5060688;28;20557;-75
2023/10/16 11:04:58;;;;;;;3.70;1.40;;;;;;;;;;5068515;28;20040;-75
2023/10/16 11:07:39;;;;;;;2.45;1.10;;;;;;;;;;5066621;28;20035;-76
2023/10/16 11:10:06;;;;;;;4.10;1.40;;;;;;;;;;5061909;28;20028;-75
2023/10/16 11:12:32;;;;;;;3.88;1.33;;;;;;;;;;5059650;28;20028;-75
2023/10/16 11:14:57;;;;;;;4.03;1.50;;;;;;;;;;5048883;28;20036;-76
2023/10/16 11:17:34;;;;;;;3.58;1.20;;;;;;;;;;5064346;28;20496;-77
2023/10/16 11:20:15;;;;;;;4.82;1.50;;;;;;;;;;5067820;28;20037;-75
2023/10/16 11:22:45;;;;;;;3.33;1.30;;;;;;;;;;5067529;28;20021;-76
2023/10/16 11:25:13;;;;;;;3.42;1.40;;;;;;;;;;5065291;28;20055;-76
2023/10/16 11:27:42;;;;;;;2.85;1.23;;;;;;;;;;5063072;28;20384;-79
2023/10/16 11:30:15;;;;;;;3.60;1.05;;;;;;;;;;5046226;28;20066;-76
2023/10/16 11:32:45;;;;;;;4.18;1.40;;;;;;;;;;5052853;28;20396;-78
2023/10/16 11:35:18;;;;;;;5.65;1.10;;;;;;;;;;5060410;28;20186;-77
2023/10/16 11:37:50;;;;;;;2.67;1.05;;;;;;;;;;5038671;28;20072;-78
2023/10/16 11:40:18;;;;;;;5.60;0.90;;;;;;;;;;5037530;28;20035;-78
2023/10/16 11:42:48;;;;;;;4.82;1.00;;;;;;;;;;5059419;28;20488;-78
2023/10/16 11:45:21;;;;;;;3.38;1.17;;;;;;;;;;5058056;28;20473;-78
2023/10/16 11:50:43;;;;;;;3.10;1.00;;;;;;;;;;5062059;28;20123;-78
2023/10/16 11:53:08;;;;;;;2.08;0.90;;;;;;;;;;5059661;28;20078;-78
2023/10/16 11:55:37;;;;;;;4.20;1.30;;;;;;;;;;5054113;28;20024;-78
2023/10/16 11:58:03;;;;;;;2.58;1.35;;;;;;;;;;5056857;28;20021;-78
2023/10/16 12:00:30;;;;;;;4.25;1.25;;;;;;;;;;5053340;28;20033;-78
2023/10/16 12:02:56;;;;;;;2.95;1.20;;;;;;;;;;5045291;28;20025;-78
2023/10/16 12:05:22;;;;;;;4.47;1.10;;;;;;;;;;5042982;28;20268;-78
2023/10/16 12:07:48;;;;;;;6.55;1.10;;;;;;;;;;5043394;28;20115;-78
2023/10/16 12:10:15;;;;;;;3.88;1.33;;;;;;;;;;5063803;28;20556;-78
2023/10/16 12:12:41;;;;;;;4.03;1.42;;;;;;;;;;5062464;28;20167;-78
2023/10/16 12:15:09;;;;;;;5.28;1.50;;;;;;;;;;5058893;28;20095;-78
2023/10/16 12:17:36;;;;;;;4.07;1.30;;;;;;;;;;5056715;28;20069;-79
2023/10/16 12:20:09;;;;;;;4.65;1.40;;;;;;;;;;5057598;28;20016;-78
2023/10/16 12:22:38;;;;;;;2.90;0.93;;;;;;;;;;5059931;28;20106;-78
2023/10/16 12:25:08;;;;;;;5.28;1.20;;;;;;;;;;5059492;28;20025;-78
2023/10/16 12:27:33;;;;;;;3.65;0.80;;;;;;;;;;5057578;28;20028;-78
2023/10/16 12:30:01;;;;;;;1.67;0.70;;;;;;;;;;5044809;28;20190;-78
2023/10/16 12:32:26;;;;;;;4.40;1.00;;;;;;;;;;5055128;28;20174;-78
2023/10/16 12:34:54;;;;;;;3.63;0.68;;;;;;;;;;5046281;28;20161;-78
2023/10/16 12:37:22;;;;;;;1.25;0.52;;;;;;;;;;5068978;28;20016;-78
2023/10/16 12:39:48;;;;;;;3.80;0.90;;;;;;;;;;5075608;28;20533;-78
2023/10/16 12:42:14;;;;;;;2.83;0.57;;;;;;;;;;5065092;28;20031;-78
2023/10/16 12:44:40;;;;;;;4.82;0.80;;;;;;;;;;5035482;28;20636;-79
2023/10/16 12:47:06;;;;;;;4.97;0.90;;;;;;;;;;5038822;28;20020;-78
2023/10/16 12:49:31;;;;;;;2.55;0.98;;;;;;;;;;5056201;28;20036;-78
2023/10/16 12:51:56;;;;;;;3.95;1.20;;;;;;;;;;5047292;28;20032;-78
2023/10/16 12:54:24;;;;;;;3.13;1.00;;;;;;;;;;5062605;28;20066;-78
2023/10/16 12:56:52;;;;;;;3.90;0.80;;;;;;;;;;5050014;28;20462;-78
2023/10/16 12:59:19;;;;;;;5.20;1.00;;;;;;;;;;5066159;28;20376;-78
2023/10/16 13:01:49;;;;;;;3.25;1.25;;;;;;;;;;5061363;28;20024;-78
2023/10/16 13:04:15;;;;;;;4.85;1.20;;;;;;;;;;5066455;28;20468;-78
2023/10/16 13:06:40;;;;;;;4.88;1.70;;;;;;;;;;5070091;28;20042;-78
2023/10/16 13:09:14;;;;;;;2.70;0.93;;;;;;;;;;5065148;28;20089;-78
2023/10/16 13:11:39;;;;;;;2.75;0.82;;;;;;;;;;5053956;28;20391;-78
2023/10/16 13:14:05;;;;;;;2.85;1.00;;;;;;;;;;5021295;28;20420;-78
2023/10/16 13:16:31;;;;;;;2.85;0.88;;;;;;;;;;5059105;28;20481;-79
2023/10/16 13:18:57;;;;;;;3.95;0.88;;;;;;;;;;5044847;28;20921;-78
2023/10/16 13:21:33;;;;;;;2.13;0.80;;;;;;;;;;5069391;28;20361;-78
2023/10/16 13:24:19;;;;;;;2.70;0.90;;;;;;;;;;5061722;28;20020;-78
2023/10/16 13:26:47;;;;;;;1.52;0.60;;;;;;;;;;5063010;28;20012;-78
2023/10/16 13:29:16;;;;;;;3.38;0.70;;;;;;;;;;5064265;28;20028;-78
2023/10/16 13:31:45;;;;;;;1.25;0.52;;;;;;;;;;5045476;28;20064;-78
2023/10/16 13:34:13;;;;;;;2.55;0.73;;;;;;;;;;5047544;28;20021;-78
2023/10/16 13:36:39;;;;;;;3.60;0.73;;;;;;;;;;5047665;28;20029;-78
2023/10/16 13:39:11;;;;;;;3.85;0.80;;;;;;;;;;5058047;28;20535;-78
2023/10/16 13:41:50;;;;;;;2.72;0.73;;;;;;;;;;5058908;28;20058;-78
2023/10/16 13:44:20;;;;;;;1.75;0.60;;;;;;;;;;5058287;28;20520;-78
2023/10/16 13:46:46;;;;;;;4.28;0.60;;;;;;;;;;5046092;28;20040;-78
2023/10/16 13:49:14;;;;;;;2.50;0.80;;;;;;;;;;5061145;28;20260;-78
2023/10/16 13:51:40;;;;;;;2.40;0.70;;;;;;;;;;5058242;28;20035;-78
2023/10/16 13:54:11;;;;;;;2.10;0.70;;;;;;;;;;5041452;28;20144;-78
2023/10/16 13:56:40;;;;;;;3.53;0.90;;;;;;;;;;5039385;28;20032;-78
2023/10/16 13:59:06;;;;;;;1.58;0.60;;;;;;;;;;5058804;28;20071;-79
2023/10/16 14:01:42;;;;;;;3.00;1.00;;;;;;;;;;5045182;28;20115;-78
2023/10/16 14:04:14;;;;;;;2.40;0.70;;;;;;;;;;5063906;28;20035;-77
2023/10/16 14:06:40;;;;;;;5.43;0.80;;;;;;;;;;5066479;28;20127;-78
2023/10/16 14:09:27;;;;;;;3.22;0.70;;;;;;;;;;5041178;28;20032;-78
2023/10/16 14:11:58;;;;;;;2.25;0.70;;;;;;;;;;5049709;28;21806;-78
2023/10/16 14:14:26;;;;;;;2.35;0.65;;;;;;;;;;5043102;28;20392;-78
2023/10/16 14:16:53;;;;;;;3.80;0.70;;;;;;;;;;5046741;28;20033;-78
2023/10/16 14:19:22;;;;;;;3.00;0.65;;;;;;;;;;5044757;28;20043;-78
2023/10/16 14:21:51;;;;;;;3.53;1.42;;;;;;;;;;5070240;28;20047;-78
2023/10/16 14:24:17;;;;;;;3.28;0.60;;;;;;;;;;5048909;28;20033;-78
2023/10/16 14:26:45;;;;;;;1.77;0.70;;;;;;;;;;5057163;28;20016;-77
2023/10/16 14:29:10;;;;;;;1.33;0.77;;;;;;;;;;5022340;28;20599;-78
2023/10/16 14:31:36;;;;;;;4.43;1.17;;;;;;;;;;5060534;28;20029;-78
2023/10/16 14:34:05;;;;;;;2.03;0.60;;;;;;;;;;5062943;28;20036;-79
2023/10/16 14:36:31;;;;;;;1.83;0.63;;;;;;;;;;5060462;28;20058;-78
2023/10/16 14:38:59;;;;;;;2.40;0.70;;;;;;;;;;5046996;28;20064;-78
2023/10/16 14:41:25;;;;;;;3.08;0.60;;;;;;;;;;5062443;28;20029;-78
2023/10/16 14:43:51;;;;;;;2.80;0.70;;;;;;;;;;5058075;28;20028;-78
2023/10/16 14:46:17;;;;;;;2.45;0.88;;;;;;;;;;5049238;28;20025;-78
2023/10/16 14:48:43;;;;;;;1.60;0.60;;;;;;;;;;5045461;28;20055;-78
2023/10/16 14:51:13;;;;;;;2.85;0.60;;;;;;;;;;5042770;28;20495;-77
2023/10/16 14:53:43;;;;;;;4.53;1.02;;;;;;;;;;5061264;28;20058;-78
2023/10/16 14:56:11;;;;;;;1.67;0.60;;;;;;;;;;5060097;28;20032;-78
2023/10/16 14:58:38;;;;;;;3.38;0.70;;;;;;;;;;5039781;28;20074;-78
2023/10/16 15:01:16;;;;;;;5.32;1.33;;;;;;;;;;5034379;28;20021;-78
2023/10/16 15:03:47;;;;;;;2.83;0.70;;;;;;;;;;5041714;28;20028;-79
2023/10/16 15:06:13;;;;;;;2.97;0.80;;;;;;;;;;5047636;28;20051;-78
2023/10/16 15:08:43;;;;;;;4.30;0.68;;;;;;;;;;5064325;28;20128;-78
2023/10/16 15:11:10;;;;;;;1.75;0.68;;;;;;;;;;5062111;28;20387;-78
2023/10/16 15:13:37;;;;;;;1.63;0.55;;;;;;;;;;5066027;28;20073;-78
2023/10/16 15:16:06;;;;;;;4.57;0.70;;;;;;;;;;5061969;28;20051;-78
2023/10/16 15:18:32;;;;;;;2.60;1.00;;;;;;;;;;5058635;28;20085;-78
2023/10/16 15:20:57;;;;;;;4.05;1.20;;;;;;;;;;5050440;28;20024;-78
2023/10/16 15:23:24;;;;;;;2.03;0.90;;;;;;;;;;5068113;28;20056;-78
2023/10/16 15:25:50;;;;;;;1.48;0.77;;;;;;;;;;5063227;28;20704;-78
2023/10/16 15:28:16;;;;;;;1.90;0.70;;;;;;;;;;5032410;28;20032;-78
2023/10/16 15:30:44;;;;;;;4.50;0.70;;;;;;;;;;5059017;28;20029;-78
2023/10/16 15:33:09;;;;;;;2.20;0.70;;;;;;;;;;5055313;28;20040;-78
2023/10/16 15:35:37;;;;;;;3.08;0.88;;;;;;;;;;5063706;28;20032;-78
2023/10/16 15:38:03;;;;;;;2.38;0.70;;;;;;;;;;5060908;28;20033;-78
2023/10/16 15:40:28;;;;;;;4.47;0.70;;;;;;;;;;5062262;28;20021;-78
2023/10/16 15:42:59;;;;;;;2.75;0.85;;;;;;;;;;5067730;28;20544;-78
2023/10/16 15:45:25;;;;;;;6.22;0.75;;;;;;;;;;5052014;28;20580;-78
2023/10/16 15:48:00;;;;;;;2.38;1.00;;;;;;;;;;5064171;28;20024;-78
2023/10/16 15:50:27;;;;;;;3.88;0.90;;;;;;;;;;5066095;28;20028;-78
2023/10/16 15:52:54;;;;;;;2.80;0.80;;;;;;;;;;5067858;28;20020;-78
2023/10/16 15:55:20;;;;;;;1.90;0.70;;;;;;;;;;5068425;28;20031;-78
2023/10/16 15:57:49;;;;;;;4.07;1.00;;;;;;;;;;5066679;28;20020;-78
2023/10/16 16:00:18;;;;;;;3.03;1.13;;;;;;;;;;5067639;28;20020;-78
2023/10/16 16:02:43;;;;;;;2.30;0.80;;;;;;;;;;5064976;28;20031;-78
2023/10/16 16:05:12;;;;;;;3.92;0.90;;;;;;;;;;5072128;28;20472;-78
2023/10/16 16:07:38;;;;;;;3.10;0.90;;;;;;;;;;5067808;28;20032;-78
2023/10/16 16:10:06;;;;;;;4.03;0.90;;;;;;;;;;5022119;28;20059;-78
2023/10/16 16:12:32;;;;;;;4.82;1.00;;;;;;;;;;5065674;28;20024;-78
2023/10/16 16:14:57;;;;;;;1.15;0.73;;;;;;;;;;5055704;28;20071;-78
2023/10/16 16:17:23;;;;;;;2.65;0.80;;;;;;;;;;5049074;28;20090;-78
2023/10/16 16:19:49;;;;;;;1.55;0.80;;;;;;;;;;5061423;28;20051;-78
2023/10/16 16:22:14;;;;;;;1.95;0.75;;;;;;;;;;5066523;28;20036;-78
2023/10/16 16:24:40;;;;;;;1.42;0.70;;;;;;;;;;5046064;28;20020;-78
2023/10/16 16:27:08;;;;;;;4.68;1.00;;;;;;;;;;5047717;28;20028;-78
2023/10/16 16:29:35;;;;;;;2.75;1.00;;;;;;;;;;5063246;28;20053;-81
2023/10/16 16:32:01;;;;;;;1.85;0.70;;;;;;;;;;5069410;28;20036;-78
2023/10/16 16:34:26;;;;;;;1.33;0.70;;;;;;;;;;5065911;28;20107;-78
2023/10/16 16:36:52;;;;;;;1.98;1.10;;;;;;;;;;5065066;28;20046;-78
2023/10/16 16:39:18;;;;;;;2.50;1.20;;;;;;;;;;5064030;28;20532;-80
2023/10/16 16:41:44;;;;;;;1.35;1.00;;;;;;;;;;5054686;28;20127;-78
2023/10/16 16:44:09;;;;;;;3.22;1.50;;;;;;;;;;5054857;28;20142;-78
2023/10/16 16:46:34;;;;;;;5.05;1.48;;;;;;;;;;5040590;28;20032;-78
2023/10/16 16:49:01;;;;;;;3.53;1.45;;;;;;;;;;5058800;28;20050;-78
2023/10/16 16:51:28;;;;;;;4.60;1.60;;;;;;;;;;5047491;28;20040;-78
2023/10/16 16:53:53;;;;;;;4.60;1.60;;;;;;;;;;5042534;28;20037;-78
2023/10/16 16:56:19;;;;;;;2.90;1.40;;;;;;;;;;5034740;28;20036;-78
2023/10/16 16:58:44;;;;;;;3.90;1.25;;;;;;;;;;5056081;28;20127;-78
2023/10/16 17:01:10;;;;;;;3.25;1.30;;;;;;;;;;5056954;28;20036;-78
2023/10/16 17:03:36;;;;;;;2.80;1.17;;;;;;;;;;5044128;28;20029;-79
2023/10/16 17:06:02;;;;;;;2.92;1.25;;;;;;;;;;5062738;28;20132;-78
2023/10/16 17:08:27;;;;;;;2.50;1.30;;;;;;;;;;5062230;28;20120;-78